TimePST,TemperatureF,Dew PointF,Humidity,Sea Level PressureIn,VisibilityMPH,Wind Direction,Wind SpeedMPH,Gust SpeedMPH,PrecipitationIn,Events,Conditions,WindDirDegrees,DateUTC
12:52 AM,53.1,21.9,30,30.05,10.0,NNW,3.5,-,N/A,,Clear,330,2012-11-28 08:52:00
1:52 AM,51.1,21.0,31,30.06,10.0,North,4.6,-,N/A,,Clear,360,2012-11-28 09:52:00
2:52 AM,52.0,21.9,31,30.05,10.0,Calm,Calm,-,N/A,,Clear,0,2012-11-28 10:52:00
3:52 AM,50.0,23.0,35,30.05,10.0,Calm,Calm,-,N/A,,Clear,0,2012-11-28 11:52:00
4:52 AM,46.0,19.0,34,30.06,10.0,Calm,Calm,-,N/A,,Clear,0,2012-11-28 12:52:00
5:52 AM,46.9,21.0,36,30.08,10.0,Calm,Calm,-,N/A,,Clear,0,2012-11-28 13:52:00
6:52 AM,46.0,19.9,35,30.09,10.0,East,3.5,-,N/A,,Clear,80,2012-11-28 14:52:00
7:52 AM,53.1,27.0,37,30.11,10.0,Calm,Calm,-,N/A,,Clear,0,2012-11-28 15:52:00
8:52 AM,57.9,28.0,32,30.13,10.0,Calm,Calm,-,N/A,,Clear,0,2012-11-28 16:52:00
9:52 AM,62.1,30.9,31,30.14,10.0,SE,3.5,-,N/A,,Clear,130,2012-11-28 17:52:00
10:52 AM,66.0,35.1,32,30.12,10.0,SE,3.5,-,N/A,,Clear,130,2012-11-28 18:52:00
11:52 AM,69.1,33.1,26,30.07,10.0,ESE,4.6,-,N/A,,Clear,120,2012-11-28 19:52:00
12:52 PM,73.0,35.1,25,30.04,10.0,Calm,Calm,-,N/A,,Clear,0,2012-11-28 20:52:00
1:52 PM,75.9,30.0,19,30.03,10.0,Calm,Calm,-,N/A,,Clear,0,2012-11-28 21:52:00
2:52 PM,78.1,30.9,18,30.01,10.0,SSE,8.1,-,N/A,,Clear,150,2012-11-28 22:52:00
3:52 PM,75.9,35.1,23,30.02,10.0,ESE,5.8,-,N/A,,Clear,120,2012-11-28 23:52:00
4:52 PM,71.1,37.0,29,30.02,10.0,ESE,5.8,-,N/A,,Clear,110,2012-11-29 00:52:00
5:52 PM,70.0,36.0,29,30.04,10.0,South,6.9,-,N/A,,Clear,190,2012-11-29 01:52:00
6:52 PM,64.0,35.1,34,30.06,10.0,SW,4.6,-,N/A,,Clear,220,2012-11-29 02:52:00
7:52 PM,63.0,37.0,38,30.06,10.0,SSE,4.6,-,N/A,,Clear,160,2012-11-29 03:52:00
8:52 PM,62.1,37.9,41,30.07,10.0,South,8.1,-,N/A,,Clear,170,2012-11-29 04:52:00
9:52 PM,61.0,39.0,44,30.09,10.0,Calm,Calm,-,N/A,,Clear,0,2012-11-29 05:52:00
10:52 PM,62.1,42.1,48,30.09,10.0,South,6.9,-,N/A,,Clear,190,2012-11-29 06:52:00
11:52 PM,59.0,43.0,55,30.09,10.0,ESE,8.1,-,N/A,,Clear,120,2012-11-29 07:52:00